Time,TemperatureF,DewpointF,PressureIn,WindDirection,WindDirectionDegrees,WindSpeedMPH,WindSpeedGustMPH,Humidity,HourlyPrecipIn,Conditions,Clouds,dailyrainin,SoftwareType,DateUTC
2013-12-06 00:12:00,8.0,-99.9,-100.00,WNW,291,3.0,5.0,-999,-99.99,,,-99.99,,2013-12-06 08:12:00,
2013-12-06 01:12:00,9.0,-99.9,-100.00,WNW,289,3.0,6.0,-999,-99.99,,,-99.99,,2013-12-06 09:12:00,
2013-12-06 03:12:00,8.0,-99.9,-100.00,WNW,290,6.0,8.0,-999,-99.99,,,-99.99,,2013-12-06 11:12:00,
2013-12-06 04:12:00,7.0,-99.9,-100.00,WNW,285,5.0,7.0,-999,-99.99,,,-99.99,,2013-12-06 12:12:00,
2013-12-06 05:12:00,10.0,-99.9,-100.00,WNW,295,3.0,5.0,-999,-99.99,,,-99.99,,2013-12-06 13:12:00,
2013-12-06 06:12:00,11.0,-99.9,-100.00,NW,315,2.0,3.0,-999,-99.99,,,-99.99,,2013-12-06 14:12:00,
2013-12-06 07:12:00,12.0,-99.9,-100.00,WNW,282,2.0,3.0,-999,-99.99,,,-99.99,,2013-12-06 15:12:00,
2013-12-06 08:13:00,16.0,-99.9,-100.00,NE,50,3.0,6.0,-999,-99.99,,,-99.99,,2013-12-06 16:13:00,
2013-12-06 09:12:00,17.0,-99.9,-100.00,NE,36,3.0,5.0,-999,-99.99,,,-99.99,,2013-12-06 17:12:00,
2013-12-06 10:13:00,19.0,-99.9,-100.00,NNE,31,9.0,13.0,-999,-99.99,,,-99.99,,2013-12-06 18:13:00,
2013-12-06 11:12:00,21.0,-99.9,-100.00,NNE,32,12.0,16.0,-999,-99.99,,,-99.99,,2013-12-06 19:12:00,
2013-12-06 12:11:00,22.0,-99.9,-100.00,NE,35,10.0,14.0,-999,-99.99,,,-99.99,,2013-12-06 20:11:00,
2013-12-06 13:11:00,24.0,-99.9,-100.00,NNE,24,9.0,15.0,-999,-99.99,,,-99.99,,2013-12-06 21:11:00,
2013-12-06 14:13:00,25.0,-99.9,-100.00,NNE,15,12.0,17.0,-999,-99.99,,,-99.99,,2013-12-06 22:13:00,
2013-12-06 15:12:00,26.0,-99.9,-100.00,NNE,17,13.0,20.0,-999,-99.99,,,-99.99,,2013-12-06 23:12:00,
2013-12-06 16:12:00,25.0,-99.9,-100.00,NNE,20,14.0,23.0,-999,-99.99,,,-99.99,,2013-12-07 00:12:00,
2013-12-06 17:11:00,24.0,-99.9,-100.00,NNE,16,13.0,21.0,-999,-99.99,,,-99.99,,2013-12-07 01:11:00,
2013-12-06 18:11:00,23.0,-99.9,-100.00,NNE,16,15.0,23.0,-999,-99.99,,,-99.99,,2013-12-07 02:11:00,
2013-12-06 19:11:00,22.0,-99.9,-100.00,NNE,22,18.0,29.0,-999,-99.99,,,-99.99,,2013-12-07 03:11:00,
2013-12-06 20:13:00,21.0,-99.9,-100.00,NNE,21,18.0,28.0,-999,-99.99,,,-99.99,,2013-12-07 04:13:00,
2013-12-06 21:12:00,21.0,-99.9,-100.00,NNE,21,20.0,31.0,-999,-99.99,,,-99.99,,2013-12-07 05:12:00,
2013-12-06 22:12:00,20.0,-99.9,-100.00,NNE,20,21.0,32.0,-999,-99.99,,,-99.99,,2013-12-07 06:12:00,
2013-12-06 23:12:00,19.0,-99.9,-100.00,NNE,21,23.0,35.0,-999,-99.99,,,-99.99,,2013-12-07 07:12:00,